createdAt,value
2018-05-17T00:00:31.638Z,0.00
2018-05-17T00:01:31.734Z,0.00
2018-05-17T00:02:31.834Z,0.00
2018-05-17T00:03:31.956Z,0.00
2018-05-17T00:04:32.053Z,0.00
2018-05-17T00:05:32.152Z,0.00
2018-05-17T00:06:32.250Z,0.00
2018-05-17T00:07:32.348Z,0.00
2018-05-17T00:08:32.446Z,0.00
2018-05-17T00:09:32.547Z,0.00
2018-05-17T00:10:32.638Z,0.00
2018-05-17T00:11:32.734Z,0.00
2018-05-17T00:12:32.832Z,0.00
2018-05-17T00:13:32.929Z,0.00
2018-05-17T00:14:33.027Z,0.00
2018-05-17T00:15:33.124Z,0.00
2018-05-17T00:16:33.220Z,0.00
2018-05-17T00:17:33.317Z,0.00
2018-05-17T00:18:33.421Z,0.00
2018-05-17T00:19:33.517Z,0.00
2018-05-17T00:20:33.610Z,0.00
2018-05-17T00:21:33.709Z,0.00
2018-05-17T00:22:33.807Z,0.00
2018-05-17T00:23:33.893Z,0.00
2018-05-17T00:24:33.992Z,0.00
2018-05-17T00:25:34.745Z,0.00
2018-05-17T00:26:34.215Z,0.00
2018-05-17T00:27:34.324Z,0.00
2018-05-17T00:28:34.422Z,0.00
2018-05-17T00:29:34.620Z,0.00
2018-05-17T00:30:34.799Z,0.00
2018-05-17T00:31:34.767Z,0.00
2018-05-17T00:32:34.938Z,0.00
2018-05-17T00:33:34.883Z,0.00
2018-05-17T00:34:35.053Z,0.00
2018-05-17T00:35:35.082Z,0.00
2018-05-17T00:36:35.341Z,0.00
2018-05-17T00:37:35.310Z,0.00
2018-05-17T00:38:35.410Z,0.00
2018-05-17T00:39:35.521Z,0.00
2018-05-17T00:40:35.628Z,0.00
2018-05-17T00:41:35.729Z,0.00
2018-05-17T00:42:35.842Z,0.00
2018-05-17T00:43:35.947Z,0.00
2018-05-17T00:44:36.634Z,0.00
2018-05-17T00:45:36.210Z,0.00
2018-05-17T00:46:36.322Z,0.00
2018-05-17T00:47:36.457Z,0.00
2018-05-17T00:48:36.550Z,0.00
2018-05-17T00:49:36.689Z,0.00
2018-05-17T00:50:36.696Z,0.00
2018-05-17T00:51:36.826Z,0.00
2018-05-17T00:52:36.926Z,0.00
2018-05-17T00:53:37.036Z,0.00
2018-05-17T00:54:37.144Z,0.00
2018-05-17T00:55:37.274Z,0.00
2018-05-17T00:56:37.364Z,0.00
2018-05-17T00:57:37.466Z,0.00
2018-05-17T00:58:37.826Z,0.00
2018-05-17T00:59:37.797Z,0.00
2018-05-17T01:00:37.826Z,0.00
2018-05-17T01:01:37.986Z,0.00
2018-05-17T01:02:38.153Z,0.00
2018-05-17T01:03:38.111Z,0.00
2018-05-17T01:04:38.201Z,0.00
2018-05-17T01:05:38.313Z,0.00
2018-05-17T01:06:38.487Z,0.00
2018-05-17T01:07:38.526Z,0.00
2018-05-17T01:08:38.627Z,0.00
2018-05-17T01:09:38.615Z,0.00
2018-05-17T01:10:38.745Z,0.00
2018-05-17T01:11:38.829Z,0.00
2018-05-17T01:12:38.933Z,0.00
2018-05-17T01:13:39.028Z,0.00
2018-05-17T01:14:39.207Z,0.00
2018-05-17T01:15:39.198Z,0.00
2018-05-17T01:16:39.284Z,0.00
2018-05-17T01:17:39.383Z,0.00
2018-05-17T01:18:39.482Z,0.00
2018-05-17T01:19:39.706Z,0.00
2018-05-17T01:20:39.903Z,0.00
2018-05-17T01:21:40.042Z,0.00
2018-05-17T01:22:40.015Z,0.00
2018-05-17T01:23:40.114Z,0.00
2018-05-17T01:24:40.202Z,0.00
2018-05-17T01:25:40.283Z,0.00
2018-05-17T01:26:40.377Z,0.00
2018-05-17T01:27:40.459Z,0.00
2018-05-17T01:28:40.552Z,0.00
2018-05-17T01:29:40.638Z,0.00
2018-05-17T01:30:40.736Z,0.00
2018-05-17T01:31:40.816Z,0.00
2018-05-17T01:32:40.936Z,0.00
2018-05-17T01:33:41.033Z,0.00
2018-05-17T01:34:41.123Z,0.00
2018-05-17T01:35:41.204Z,0.00
2018-05-17T01:36:41.304Z,0.00
2018-05-17T01:37:41.412Z,0.00
2018-05-17T01:38:41.500Z,0.00
2018-05-17T01:39:41.586Z,0.00
2018-05-17T01:40:41.849Z,0.00
2018-05-17T01:41:41.853Z,0.00
2018-05-17T01:42:41.954Z,0.00
2018-05-17T01:43:42.084Z,0.00
2018-05-17T01:44:42.193Z,0.00
2018-05-17T01:45:42.293Z,0.00
2018-05-17T01:46:42.419Z,0.00
2018-05-17T01:47:42.512Z,0.00
2018-05-17T01:48:42.606Z,0.00
2018-05-17T01:49:42.700Z,0.00
2018-05-17T01:50:42.798Z,0.00
2018-05-17T01:51:42.884Z,0.00
2018-05-17T01:52:42.985Z,0.00
2018-05-17T01:53:43.095Z,0.00
2018-05-17T01:54:43.198Z,0.00
2018-05-17T01:55:43.428Z,0.00
2018-05-17T01:56:43.463Z,0.00
2018-05-17T01:57:43.561Z,0.00
2018-05-17T01:58:43.659Z,0.00
2018-05-17T01:59:43.756Z,0.00
2018-05-17T02:00:43.861Z,0.00
2018-05-17T02:01:43.958Z,0.00
2018-05-17T02:02:44.048Z,0.00
2018-05-17T02:03:44.478Z,0.00
2018-05-17T02:04:44.433Z,0.00
2018-05-17T02:05:44.574Z,0.00
2018-05-17T02:06:44.420Z,0.00
2018-05-17T02:07:44.623Z,0.00
2018-05-17T02:08:44.724Z,0.00
2018-05-17T02:09:44.818Z,0.00
2018-05-17T02:10:44.980Z,0.00
2018-05-17T02:11:44.967Z,0.00
2018-05-17T02:12:45.222Z,0.00
2018-05-17T02:13:45.116Z,0.00
2018-05-17T02:14:45.291Z,0.00
2018-05-17T02:15:45.307Z,0.00
2018-05-17T02:16:45.496Z,0.00
2018-05-17T02:17:45.809Z,0.00
2018-05-17T02:18:45.664Z,0.00
2018-05-17T02:19:45.833Z,0.00
2018-05-17T02:20:45.809Z,0.00
2018-05-17T02:21:45.882Z,0.00
2018-05-17T02:22:45.847Z,0.00
2018-05-17T02:23:45.987Z,0.00
2018-05-17T02:24:46.326Z,0.00
2018-05-17T02:25:46.243Z,0.00
2018-05-17T02:26:46.415Z,0.00
2018-05-17T02:27:46.356Z,0.00
2018-05-17T02:28:46.522Z,0.00
2018-05-17T02:29:46.583Z,0.00
2018-05-17T02:30:46.832Z,0.00
2018-05-17T02:31:46.774Z,0.00
2018-05-17T02:32:46.872Z,0.00
2018-05-17T02:33:46.860Z,0.00
2018-05-17T02:34:46.926Z,0.00
2018-05-17T02:35:47.128Z,0.00
2018-05-17T02:36:47.118Z,0.00
2018-05-17T02:37:47.234Z,0.00
2018-05-17T02:38:47.337Z,0.00
2018-05-17T02:39:47.428Z,0.00
2018-05-17T02:40:47.518Z,0.00
2018-05-17T02:41:47.612Z,0.00
2018-05-17T02:42:47.712Z,0.00
2018-05-17T02:43:47.811Z,0.00
2018-05-17T02:44:48.053Z,0.00
2018-05-17T02:45:47.972Z,0.00
2018-05-17T02:46:48.174Z,0.00
2018-05-17T02:47:48.151Z,0.00
2018-05-17T02:48:48.248Z,0.00
2018-05-17T02:49:48.341Z,0.00
2018-05-17T02:50:48.443Z,0.00
2018-05-17T02:51:48.538Z,0.00
2018-05-17T02:52:48.669Z,0.00
2018-05-17T02:53:48.804Z,0.00
2018-05-17T02:54:48.894Z,0.00
2018-05-17T02:55:48.991Z,0.00
2018-05-17T02:56:49.092Z,0.00
2018-05-17T02:57:49.185Z,0.00
2018-05-17T02:58:49.281Z,0.00
2018-05-17T02:59:49.378Z,0.00
2018-05-17T03:00:49.475Z,0.00
2018-05-17T03:01:49.572Z,0.00
2018-05-17T03:02:49.668Z,0.00
2018-05-17T03:03:49.765Z,0.00
2018-05-17T03:04:49.861Z,0.00
2018-05-17T03:05:49.968Z,0.00
2018-05-17T03:06:50.056Z,0.00
2018-05-17T03:07:50.143Z,0.00
2018-05-17T03:08:50.238Z,0.00
2018-05-17T03:09:50.335Z,0.00
2018-05-17T03:10:50.432Z,0.00
2018-05-17T03:11:50.526Z,0.00
2018-05-17T03:12:50.624Z,0.00
2018-05-17T03:13:50.729Z,0.00
2018-05-17T03:14:50.827Z,0.00
2018-05-17T03:15:50.923Z,0.00
2018-05-17T03:16:51.017Z,0.00
2018-05-17T03:17:51.118Z,0.00
2018-05-17T03:18:51.213Z,0.00
2018-05-17T03:19:51.311Z,0.00
2018-05-17T03:20:51.406Z,0.00
2018-05-17T03:21:51.506Z,0.00
2018-05-17T03:22:51.602Z,0.00
2018-05-17T03:23:51.699Z,0.00
2018-05-17T03:24:51.800Z,0.00
2018-05-17T03:25:51.895Z,0.00
2018-05-17T03:26:51.994Z,0.00
2018-05-17T03:27:52.079Z,5.63
2018-05-17T03:28:52.176Z,5.63
2018-05-17T03:29:52.275Z,5.63
2018-05-17T03:30:52.374Z,5.63
2018-05-17T03:31:52.472Z,5.63
2018-05-17T03:32:52.568Z,5.63
2018-05-17T03:33:52.666Z,5.63
2018-05-17T03:34:52.760Z,5.63
2018-05-17T03:35:52.858Z,11.25
2018-05-17T03:36:52.955Z,11.25
2018-05-17T03:37:53.053Z,11.25
2018-05-17T03:38:53.149Z,16.88
2018-05-17T03:39:53.246Z,16.88
2018-05-17T03:40:53.363Z,16.88
2018-05-17T03:41:53.462Z,16.88
2018-05-17T03:42:53.558Z,16.88
2018-05-17T03:43:53.654Z,16.88
2018-05-17T03:44:53.750Z,16.88
2018-05-17T03:45:53.850Z,22.50
2018-05-17T03:46:53.945Z,22.50
2018-05-17T03:47:54.042Z,22.50
2018-05-17T03:48:54.138Z,22.50
2018-05-17T03:49:54.235Z,28.13
2018-05-17T03:50:54.332Z,28.13
2018-05-17T03:51:54.429Z,28.13
2018-05-17T03:52:54.529Z,33.75
2018-05-17T03:53:54.625Z,33.75
2018-05-17T03:54:54.718Z,33.75
2018-05-17T03:55:54.814Z,39.38
2018-05-17T03:56:54.912Z,39.38
2018-05-17T03:57:55.008Z,45.00
2018-05-17T03:58:55.105Z,45.00
2018-05-17T03:59:55.201Z,50.63
2018-05-17T04:00:55.297Z,50.63
2018-05-17T04:01:55.401Z,56.25
2018-05-17T04:02:55.496Z,56.25
2018-05-17T04:03:55.591Z,61.88
2018-05-17T04:04:55.692Z,61.88
2018-05-17T04:05:55.785Z,67.50
2018-05-17T04:06:55.885Z,67.50
2018-05-17T04:07:55.982Z,73.13
2018-05-17T04:08:56.079Z,73.13
2018-05-17T04:09:56.174Z,78.75
2018-05-17T04:10:56.276Z,78.75
2018-05-17T04:11:56.369Z,84.38
2018-05-17T04:12:56.464Z,84.38
2018-05-17T04:13:56.639Z,84.38
2018-05-17T04:14:56.647Z,90.00
2018-05-17T04:15:56.776Z,90.00
2018-05-17T04:16:56.872Z,95.63
2018-05-17T04:17:56.972Z,101.25
2018-05-17T04:18:57.068Z,101.25
2018-05-17T04:19:57.184Z,101.25
2018-05-17T04:20:57.279Z,106.88
2018-05-17T04:21:57.359Z,106.88
2018-05-17T04:22:57.468Z,101.25
2018-05-17T04:23:57.611Z,95.63
2018-05-17T04:24:57.633Z,90.00
2018-05-17T04:25:57.731Z,95.63
2018-05-17T04:26:57.826Z,95.63
2018-05-17T04:27:58.001Z,106.88
2018-05-17T04:28:57.961Z,118.13
2018-05-17T04:29:58.052Z,123.75
2018-05-17T04:30:58.153Z,123.75
2018-05-17T04:31:58.265Z,129.38
2018-05-17T04:32:58.365Z,135.00
2018-05-17T04:33:58.461Z,135.00
2018-05-17T04:34:58.561Z,129.38
2018-05-17T04:35:58.659Z,140.63
2018-05-17T04:36:58.755Z,140.63
2018-05-17T04:37:59.159Z,140.63
2018-05-17T04:38:58.912Z,146.25
2018-05-17T04:39:59.017Z,157.50
2018-05-17T04:40:59.095Z,163.13
2018-05-17T04:41:59.188Z,157.50
2018-05-17T04:42:59.889Z,157.50
2018-05-17T04:43:59.381Z,163.13
2018-05-17T04:45:00.069Z,168.75
2018-05-17T04:45:59.572Z,174.38
2018-05-17T04:46:59.741Z,174.38
2018-05-17T04:47:59.770Z,174.38
2018-05-17T04:48:59.867Z,174.38
2018-05-17T04:49:59.965Z,168.75
2018-05-17T04:51:00.230Z,157.50
2018-05-17T04:52:00.157Z,140.63
2018-05-17T04:53:00.260Z,146.25
2018-05-17T04:54:00.370Z,151.88
2018-05-17T04:55:00.471Z,157.50
2018-05-17T04:56:00.560Z,168.75
2018-05-17T04:57:00.697Z,168.75
2018-05-17T04:58:00.908Z,174.38
2018-05-17T04:59:00.880Z,168.75
2018-05-17T05:00:01.155Z,168.75
2018-05-17T05:01:01.047Z,191.25
2018-05-17T05:02:01.153Z,196.88
2018-05-17T05:03:01.400Z,191.25
2018-05-17T05:04:01.350Z,196.88
2018-05-17T05:05:01.546Z,202.50
2018-05-17T05:06:01.722Z,208.13
2018-05-17T05:07:02.088Z,208.13
2018-05-17T05:08:02.090Z,219.38
2018-05-17T05:09:01.888Z,213.75
2018-05-17T05:10:02.158Z,196.88
2018-05-17T05:11:02.012Z,196.88
2018-05-17T05:12:02.299Z,196.88
2018-05-17T05:13:02.255Z,196.88
2018-05-17T05:14:02.354Z,208.13
2018-05-17T05:15:02.443Z,219.38
2018-05-17T05:16:02.546Z,213.75
2018-05-17T05:17:02.640Z,202.50
2018-05-17T05:18:02.738Z,213.75
2018-05-17T05:19:02.837Z,208.13
2018-05-17T05:20:02.930Z,225.00
2018-05-17T05:21:03.031Z,219.38
2018-05-17T05:22:03.128Z,236.25
2018-05-17T05:23:03.224Z,219.38
2018-05-17T05:24:03.320Z,253.13
2018-05-17T05:25:03.422Z,247.50
2018-05-17T05:26:03.517Z,270.00
2018-05-17T05:27:03.615Z,247.50
2018-05-17T05:28:03.721Z,258.75
2018-05-17T05:29:03.819Z,270.00
2018-05-17T05:30:03.924Z,275.63
2018-05-17T05:31:03.999Z,247.50
2018-05-17T05:32:04.095Z,247.50
2018-05-17T05:33:04.200Z,258.75
2018-05-17T05:34:04.356Z,253.13
2018-05-17T05:35:04.317Z,236.25
2018-05-17T05:36:04.447Z,230.63
2018-05-17T05:37:04.534Z,225.00
2018-05-17T05:38:04.637Z,213.75
2018-05-17T05:39:04.741Z,219.38
2018-05-17T05:40:04.915Z,230.63
2018-05-17T05:41:05.159Z,236.25
2018-05-17T05:42:05.222Z,241.88
2018-05-17T05:43:05.210Z,236.25
2018-05-17T05:44:05.368Z,230.63
2018-05-17T05:45:05.449Z,230.63
2018-05-17T05:46:05.601Z,230.63
2018-05-17T05:47:05.685Z,219.38
2018-05-17T05:48:05.783Z,202.50
2018-05-17T05:49:06.002Z,191.25
2018-05-17T05:50:06.072Z,185.63
2018-05-17T05:51:06.067Z,180.00
2018-05-17T05:52:06.197Z,174.38
2018-05-17T05:53:06.299Z,163.13
2018-05-17T05:54:06.598Z,168.75
2018-05-17T05:55:06.595Z,185.63
2018-05-17T05:56:06.709Z,196.88
2018-05-17T05:57:06.669Z,213.75
2018-05-17T05:58:06.789Z,230.63
2018-05-17T05:59:06.890Z,225.00
2018-05-17T06:00:06.987Z,213.75
2018-05-17T06:01:07.103Z,219.38
2018-05-17T06:02:07.299Z,208.13
2018-05-17T06:03:07.264Z,219.38
2018-05-17T06:04:07.360Z,213.75
2018-05-17T06:05:07.885Z,225.00
2018-05-17T06:06:07.497Z,225.00
2018-05-17T06:07:07.742Z,264.38
2018-05-17T06:08:07.641Z,264.38
2018-05-17T06:09:07.807Z,270.00
2018-05-17T06:10:07.771Z,258.75
2018-05-17T06:11:07.904Z,264.38
2018-05-17T06:12:07.994Z,258.75
2018-05-17T06:13:08.487Z,275.63
2018-05-17T06:14:08.298Z,281.25
2018-05-17T06:15:08.289Z,292.50
2018-05-17T06:16:08.395Z,320.63
2018-05-17T06:17:08.482Z,348.75
2018-05-17T06:18:08.703Z,354.38
2018-05-17T06:19:08.731Z,348.75
2018-05-17T06:20:08.834Z,371.25
2018-05-17T06:21:08.916Z,376.88
2018-05-17T06:22:09.010Z,376.88
2018-05-17T06:23:09.276Z,376.88
2018-05-17T06:24:09.357Z,382.50
2018-05-17T06:25:09.331Z,365.63
2018-05-17T06:26:09.419Z,382.50
2018-05-17T06:27:09.746Z,388.13
2018-05-17T06:28:09.595Z,399.38
2018-05-17T06:29:09.714Z,360.00
2018-05-17T06:30:09.821Z,343.13
2018-05-17T06:31:10.174Z,343.13
2018-05-17T06:32:10.152Z,348.75
2018-05-17T06:33:10.254Z,331.88
2018-05-17T06:34:10.219Z,315.00
2018-05-17T06:35:10.317Z,320.63
2018-05-17T06:36:10.484Z,348.75
2018-05-17T06:37:10.507Z,354.38
2018-05-17T06:38:10.615Z,337.50
2018-05-17T06:39:10.710Z,331.88
2018-05-17T06:40:10.816Z,331.88
2018-05-17T06:41:10.907Z,348.75
2018-05-17T06:42:11.026Z,376.88
2018-05-17T06:43:11.153Z,382.50
2018-05-17T06:44:11.368Z,388.13
2018-05-17T06:45:11.324Z,382.50
2018-05-17T06:46:11.449Z,388.13
2018-05-17T06:47:11.455Z,405.00
2018-05-17T06:48:11.577Z,388.13
2018-05-17T06:49:11.708Z,376.88
2018-05-17T06:50:11.795Z,376.88
2018-05-17T06:51:11.914Z,360.00
2018-05-17T06:52:11.995Z,382.50
2018-05-17T06:53:12.136Z,382.50
2018-05-17T06:54:12.237Z,393.75
2018-05-17T06:55:12.335Z,410.63
2018-05-17T06:56:12.459Z,416.25
2018-05-17T06:57:12.566Z,438.75
2018-05-17T06:58:12.675Z,438.75
2018-05-17T06:59:12.775Z,461.25
2018-05-17T07:00:12.862Z,483.75
2018-05-17T07:01:13.032Z,523.13
2018-05-17T07:02:13.103Z,523.13
2018-05-17T07:03:13.226Z,523.13
2018-05-17T07:04:13.370Z,534.38
2018-05-17T07:05:13.463Z,523.13
2018-05-17T07:06:13.551Z,523.13
2018-05-17T07:07:13.636Z,523.13
2018-05-17T07:08:13.748Z,506.25
2018-05-17T07:09:13.877Z,511.88
2018-05-17T07:10:13.974Z,500.63
2018-05-17T07:11:14.118Z,517.50
2018-05-17T07:12:14.242Z,517.50
2018-05-17T07:13:14.352Z,523.13
2018-05-17T07:14:14.458Z,517.50
2018-05-17T07:15:14.560Z,506.25
2018-05-17T07:16:14.658Z,489.38
2018-05-17T07:17:14.774Z,489.38
2018-05-17T07:18:15.027Z,483.75
2018-05-17T07:19:14.932Z,483.75
2018-05-17T07:20:15.046Z,500.63
2018-05-17T07:21:15.143Z,478.13
2018-05-17T07:22:15.240Z,478.13
2018-05-17T07:23:15.332Z,466.88
2018-05-17T07:24:15.499Z,472.50
2018-05-17T07:25:15.557Z,483.75
2018-05-17T07:26:15.640Z,478.13
2018-05-17T07:27:15.771Z,438.75
2018-05-17T07:28:15.862Z,433.13
2018-05-17T07:29:15.955Z,416.25
2018-05-17T07:30:16.084Z,405.00
2018-05-17T07:31:16.233Z,405.00
2018-05-17T07:32:16.269Z,405.00
2018-05-17T07:33:16.371Z,416.25
2018-05-17T07:34:16.461Z,427.50
2018-05-17T07:35:16.586Z,433.13
2018-05-17T07:36:16.674Z,433.13
2018-05-17T07:37:16.807Z,444.38
2018-05-17T07:38:16.921Z,444.38
2018-05-17T07:39:17.070Z,450.00
2018-05-17T07:40:17.214Z,444.38
2018-05-17T07:41:17.337Z,450.00
2018-05-17T07:42:17.453Z,455.63
2018-05-17T07:43:17.557Z,455.63
2018-05-17T07:44:17.646Z,478.13
2018-05-17T07:45:17.778Z,489.38
2018-05-17T07:46:17.879Z,495.00
2018-05-17T07:47:18.075Z,511.88
2018-05-17T07:48:18.079Z,523.13
2018-05-17T07:49:18.192Z,523.13
2018-05-17T07:50:18.322Z,528.75
2018-05-17T07:51:18.456Z,545.63
2018-05-17T07:52:18.588Z,511.88
2018-05-17T07:53:18.697Z,500.63
2018-05-17T07:54:18.796Z,545.63
2018-05-17T07:55:18.914Z,511.88
2018-05-17T07:56:19.011Z,540.00
2018-05-17T07:57:19.109Z,523.13
2018-05-17T07:58:19.212Z,517.50
2018-05-17T07:59:19.343Z,517.50
2018-05-17T08:00:19.442Z,517.50
2018-05-17T08:01:19.533Z,517.50
2018-05-17T08:02:19.684Z,523.13
2018-05-17T08:03:19.783Z,534.38
2018-05-17T08:04:19.943Z,528.75
2018-05-17T08:05:20.041Z,528.75
2018-05-17T08:06:20.141Z,528.75
2018-05-17T08:07:20.240Z,540.00
2018-05-17T08:08:20.338Z,545.63
2018-05-17T08:09:20.507Z,579.38
2018-05-17T08:10:20.537Z,585.00
2018-05-17T08:11:20.638Z,613.13
2018-05-17T08:12:20.737Z,618.75
2018-05-17T08:13:20.829Z,601.88
2018-05-17T08:14:20.929Z,523.13
2018-05-17T08:15:21.027Z,506.25
2018-05-17T08:16:21.129Z,511.88
2018-05-17T08:17:21.228Z,517.50
2018-05-17T08:18:21.335Z,517.50
2018-05-17T08:19:21.428Z,523.13
2018-05-17T08:20:21.524Z,511.88
2018-05-17T08:21:21.624Z,517.50
2018-05-17T08:22:21.720Z,495.00
2018-05-17T08:23:21.821Z,483.75
2018-05-17T08:24:21.921Z,483.75
2018-05-17T08:25:22.019Z,489.38
2018-05-17T08:26:22.123Z,489.38
2018-05-17T08:27:22.221Z,489.38
2018-05-17T08:28:22.320Z,495.00
2018-05-17T08:29:22.424Z,500.63
2018-05-17T08:30:22.520Z,489.38
2018-05-17T08:31:22.625Z,461.25
2018-05-17T08:32:22.721Z,472.50
2018-05-17T08:33:22.827Z,478.13
2018-05-17T08:34:22.927Z,506.25
2018-05-17T08:35:23.026Z,585.00
2018-05-17T08:36:23.187Z,596.25
2018-05-17T08:37:23.225Z,562.50
2018-05-17T08:38:23.324Z,573.75
2018-05-17T08:39:23.425Z,562.50
2018-05-17T08:40:23.539Z,551.25
2018-05-17T08:41:23.638Z,545.63
2018-05-17T08:42:23.739Z,534.38
2018-05-17T08:43:23.838Z,528.75
2018-05-17T08:44:23.938Z,590.63
2018-05-17T08:45:24.038Z,545.63
2018-05-17T08:46:24.137Z,562.50
2018-05-17T08:47:24.252Z,540.00
2018-05-17T08:48:24.348Z,545.63
2018-05-17T08:49:24.451Z,545.63
2018-05-17T08:50:24.549Z,472.50
2018-05-17T08:51:24.651Z,461.25
2018-05-17T08:52:24.749Z,455.63
2018-05-17T08:53:24.848Z,450.00
2018-05-17T08:54:24.977Z,450.00
2018-05-17T08:55:25.064Z,444.38
2018-05-17T08:56:25.165Z,444.38
2018-05-17T08:57:25.259Z,444.38
2018-05-17T08:58:25.374Z,444.38
2018-05-17T08:59:25.473Z,438.75
2018-05-17T09:00:25.575Z,444.38
2018-05-17T09:01:25.670Z,450.00
2018-05-17T09:02:25.769Z,461.25
2018-05-17T09:03:25.871Z,466.88
2018-05-17T09:04:25.970Z,483.75
2018-05-17T09:05:26.082Z,483.75
2018-05-17T09:06:26.172Z,489.38
2018-05-17T09:07:26.271Z,489.38
2018-05-17T09:08:26.384Z,489.38
2018-05-17T09:09:26.479Z,495.00
2018-05-17T09:10:26.575Z,500.63
2018-05-17T09:11:26.678Z,506.25
2018-05-17T09:12:26.781Z,528.75
2018-05-17T09:13:26.883Z,534.38
2018-05-17T09:14:26.982Z,551.25
2018-05-17T09:15:27.094Z,585.00
2018-05-17T09:16:27.199Z,601.88
2018-05-17T09:17:27.351Z,635.63
2018-05-17T09:18:27.444Z,607.50
2018-05-17T09:19:27.549Z,663.75
2018-05-17T09:20:27.694Z,658.13
2018-05-17T09:21:27.743Z,652.50
2018-05-17T09:22:27.845Z,658.13
2018-05-17T09:23:27.939Z,658.13
2018-05-17T09:24:28.055Z,658.13
2018-05-17T09:25:28.145Z,652.50
2018-05-17T09:26:28.252Z,652.50
2018-05-17T09:27:28.352Z,658.13
2018-05-17T09:28:28.454Z,658.13
2018-05-17T09:29:28.573Z,624.38
2018-05-17T09:30:28.672Z,585.00
2018-05-17T09:31:28.789Z,568.13
2018-05-17T09:32:28.835Z,556.88
2018-05-17T09:33:28.957Z,573.75
2018-05-17T09:34:29.074Z,556.88
2018-05-17T09:35:29.174Z,562.50
2018-05-17T09:36:29.276Z,556.88
2018-05-17T09:37:29.369Z,556.88
2018-05-17T09:38:29.485Z,556.88
2018-05-17T09:39:29.585Z,556.88
2018-05-17T09:40:29.685Z,562.50
2018-05-17T09:41:29.828Z,568.13
2018-05-17T09:42:29.892Z,573.75
2018-05-17T09:43:29.992Z,596.25
2018-05-17T09:44:30.095Z,601.88
2018-05-17T09:45:30.193Z,601.88
2018-05-17T09:46:30.293Z,601.88
2018-05-17T09:47:30.430Z,607.50
2018-05-17T09:48:30.498Z,607.50
2018-05-17T09:49:30.595Z,613.13
2018-05-17T09:50:30.722Z,607.50
2018-05-17T09:51:30.934Z,618.75
2018-05-17T09:52:30.908Z,624.38
2018-05-17T09:53:31.009Z,624.38
2018-05-17T09:54:31.109Z,635.63
2018-05-17T09:55:31.212Z,646.88
2018-05-17T09:56:31.310Z,675.00
2018-05-17T09:57:31.411Z,675.00
2018-05-17T09:58:31.547Z,630.00
2018-05-17T09:59:31.647Z,624.38
2018-05-17T10:00:31.746Z,663.75
2018-05-17T10:01:31.854Z,596.25
2018-05-17T10:02:31.956Z,585.00
2018-05-17T10:03:32.055Z,607.50
2018-05-17T10:04:32.153Z,641.25
2018-05-17T10:05:32.255Z,573.75
2018-05-17T10:06:32.353Z,556.88
2018-05-17T10:07:32.485Z,551.25
2018-05-17T10:08:32.584Z,551.25
2018-05-17T10:09:32.700Z,556.88
2018-05-17T10:10:32.816Z,551.25
2018-05-17T10:11:32.919Z,601.88
2018-05-17T10:12:33.044Z,528.75
2018-05-17T10:13:33.101Z,523.13
2018-05-17T10:14:33.281Z,523.13
2018-05-17T10:15:33.393Z,523.13
2018-05-17T10:16:33.418Z,517.50
2018-05-17T10:17:33.512Z,517.50
2018-05-17T10:18:33.619Z,506.25
2018-05-17T10:19:33.725Z,506.25
2018-05-17T10:20:33.817Z,500.63
2018-05-17T10:21:33.941Z,506.25
2018-05-17T10:22:34.024Z,511.88
2018-05-17T10:23:34.173Z,568.13
2018-05-17T10:24:34.270Z,511.88
2018-05-17T10:25:34.366Z,523.13
2018-05-17T10:26:34.524Z,534.38
2018-05-17T10:27:34.647Z,545.63
2018-05-17T10:28:34.647Z,523.13
2018-05-17T10:29:34.730Z,568.13
2018-05-17T10:30:34.786Z,523.13
2018-05-17T10:31:34.875Z,568.13
2018-05-17T10:32:34.961Z,551.25
2018-05-17T10:33:35.090Z,590.63
2018-05-17T10:34:35.144Z,635.63
2018-05-17T10:35:35.332Z,624.38
2018-05-17T10:36:35.293Z,630.00
2018-05-17T10:37:35.388Z,635.63
2018-05-17T10:38:35.710Z,630.00
2018-05-17T10:39:35.613Z,624.38
2018-05-17T10:40:35.702Z,624.38
2018-05-17T10:41:35.806Z,635.63
2018-05-17T10:42:35.898Z,646.88
2018-05-17T10:43:36.000Z,646.88
2018-05-17T10:44:36.129Z,646.88
2018-05-17T10:45:36.241Z,658.13
2018-05-17T10:46:36.205Z,663.75
2018-05-17T10:47:36.432Z,658.13
2018-05-17T10:48:36.373Z,686.25
2018-05-17T10:49:36.675Z,663.75
2018-05-17T10:50:36.729Z,646.88
2018-05-17T10:51:36.692Z,646.88
2018-05-17T10:52:36.786Z,635.63
2018-05-17T10:53:36.904Z,652.50
2018-05-17T10:54:37.014Z,641.25
2018-05-17T10:55:37.126Z,630.00
2018-05-17T10:56:37.219Z,630.00
2018-05-17T10:57:37.327Z,630.00
2018-05-17T10:58:37.540Z,630.00
2018-05-17T10:59:37.508Z,607.50
2018-05-17T11:00:37.598Z,579.38
2018-05-17T11:01:37.687Z,601.88
2018-05-17T11:02:37.973Z,601.88
2018-05-17T11:03:37.906Z,596.25
2018-05-17T11:04:37.996Z,601.88
2018-05-17T11:05:38.106Z,590.63
2018-05-17T11:06:38.319Z,590.63
2018-05-17T11:07:38.323Z,590.63
2018-05-17T11:08:38.423Z,601.88
2018-05-17T11:09:38.527Z,596.25
2018-05-17T11:10:38.628Z,585.00
2018-05-17T11:11:38.791Z,601.88
2018-05-17T11:12:38.770Z,596.25
2018-05-17T11:13:38.988Z,601.88
2018-05-17T11:14:38.951Z,607.50
2018-05-17T11:15:39.051Z,590.63
2018-05-17T11:16:39.159Z,562.50
2018-05-17T11:17:39.329Z,545.63
2018-05-17T11:18:39.297Z,551.25
2018-05-17T11:19:39.457Z,528.75
2018-05-17T11:20:39.544Z,517.50
2018-05-17T11:21:39.810Z,534.38
2018-05-17T11:22:39.780Z,556.88
2018-05-17T11:23:39.868Z,545.63
2018-05-17T11:24:39.964Z,540.00
2018-05-17T11:25:40.072Z,511.88
2018-05-17T11:26:40.301Z,495.00
2018-05-17T11:27:40.278Z,511.88
2018-05-17T11:28:40.366Z,528.75
2018-05-17T11:29:40.474Z,551.25
2018-05-17T11:30:40.579Z,545.63
2018-05-17T11:31:40.680Z,528.75
2018-05-17T11:32:40.782Z,540.00
2018-05-17T11:33:40.903Z,534.38
2018-05-17T11:34:40.998Z,540.00
2018-05-17T11:35:41.102Z,506.25
2018-05-17T11:36:41.195Z,506.25
2018-05-17T11:37:41.294Z,483.75
2018-05-17T11:38:41.430Z,483.75
2018-05-17T11:39:41.533Z,472.50
2018-05-17T11:40:41.696Z,472.50
2018-05-17T11:41:41.676Z,466.88
2018-05-17T11:42:41.785Z,472.50
2018-05-17T11:43:41.874Z,461.25
2018-05-17T11:44:41.967Z,478.13
2018-05-17T11:45:42.051Z,461.25
2018-05-17T11:46:42.151Z,455.63
2018-05-17T11:47:42.275Z,461.25
2018-05-17T11:48:42.376Z,461.25
2018-05-17T11:49:42.492Z,495.00
2018-05-17T11:50:42.596Z,511.88
2018-05-17T11:51:42.728Z,523.13
2018-05-17T11:52:42.831Z,528.75
2018-05-17T11:53:42.930Z,500.63
2018-05-17T11:54:43.021Z,506.25
2018-05-17T11:55:43.106Z,523.13
2018-05-17T11:56:43.198Z,506.25
2018-05-17T11:57:43.311Z,523.13
2018-05-17T11:58:43.465Z,568.13
2018-05-17T11:59:43.525Z,601.88
2018-05-17T12:00:43.630Z,607.50
2018-05-17T12:01:43.728Z,607.50
2018-05-17T12:02:43.847Z,601.88
2018-05-17T12:03:43.934Z,590.63
2018-05-17T12:04:44.044Z,579.38
2018-05-17T12:05:44.125Z,556.88
2018-05-17T12:06:44.300Z,562.50
2018-05-17T12:07:44.369Z,556.88
2018-05-17T12:08:44.468Z,556.88
2018-05-17T12:09:44.618Z,562.50
2018-05-17T12:10:44.642Z,562.50
2018-05-17T12:11:44.783Z,568.13
2018-05-17T12:12:44.886Z,568.13
2018-05-17T12:13:44.990Z,562.50
2018-05-17T12:14:45.085Z,562.50
2018-05-17T12:15:45.183Z,568.13
2018-05-17T12:16:45.287Z,568.13
2018-05-17T12:17:45.386Z,573.75
2018-05-17T12:18:45.489Z,579.38
2018-05-17T12:19:45.596Z,562.50
2018-05-17T12:20:45.704Z,523.13
2018-05-17T12:21:45.794Z,511.88
2018-05-17T12:22:45.972Z,523.13
2018-05-17T12:23:45.952Z,540.00
2018-05-17T12:24:46.053Z,551.25
2018-05-17T12:25:46.154Z,551.25
2018-05-17T12:26:46.253Z,562.50
2018-05-17T12:27:46.376Z,562.50
2018-05-17T12:28:46.492Z,630.00
2018-05-17T12:29:46.631Z,534.38
2018-05-17T12:30:46.718Z,528.75
2018-05-17T12:31:46.866Z,545.63
2018-05-17T12:32:46.957Z,545.63
2018-05-17T12:33:47.095Z,540.00
2018-05-17T12:34:47.195Z,540.00
2018-05-17T12:35:47.296Z,534.38
2018-05-17T12:36:47.401Z,540.00
2018-05-17T12:37:47.507Z,517.50
2018-05-17T12:38:47.616Z,511.88
2018-05-17T12:39:47.723Z,517.50
2018-05-17T12:40:47.893Z,511.88
2018-05-17T12:41:47.872Z,506.25
2018-05-17T12:42:47.979Z,506.25
2018-05-17T12:43:48.078Z,511.88
2018-05-17T12:44:48.176Z,511.88